< < Back
Terminal Aerodrome Forecast


Current Version              Previous Versions:   1  2  3  4  5  6  7  8  9  

Terminal Aerodrome Forecast

387
FTUS42 KJAX 262327
TAFGNV
TAF
KGNV 262327Z 2700/2724 07006KT P6SM FEW035 SCT250
     FM270400 VRB02KT P6SM FEW250
     FM271400 08008KT P6SM VCSH BKN035
     FM271800 09010KT P6SM VCSH BKN040 BKN250=

Latest METAR

007
SAUS70 KWBC 270100 RRB
MTRGNV
METAR KGNV 270053Z 07006KT 10SM FEW090 27/21 A3001 RMK AO2 SLP157
T02670211


USA.gov is the U.S. government's official web portal to all federal, state and local government web resources and services.